Terminal Aerodrome Forecast
Issued by NWS

Home | Current Version | Previous Version | Text Only | Print | Product List | Glossary Off
Versions: 1 2 3 4 5 6 7 8 9 10

011
FTUS43 KMPX 230520
TAFRNH
TAF
KRNH 230520Z 2306/2406 21003KT P6SM SKC
     FM231400 03004KT P6SM SCT200
     FM231900 08006KT P6SM SCT100 BKN200
     FM232100 10007KT P6SM BKN100
     FM240100 10007KT P6SM SCT100 BKN200=

USA.gov is the U.S. government's official web portal to all federal, state and local government web resources and services.